createdAt,value
2017-10-16T00:01:08.242Z,99701.69
2017-10-16T00:03:40.450Z,99696.61
2017-10-16T00:06:13.947Z,99698.20
2017-10-16T00:08:45.581Z,99698.01
2017-10-16T00:11:16.439Z,99699.11
2017-10-16T00:13:47.992Z,99692.31
2017-10-16T00:16:19.458Z,99692.63
2017-10-16T00:18:50.743Z,99692.63
2017-10-16T00:21:22.319Z,99689.09
2017-10-16T00:23:54.610Z,99688.99
2017-10-16T00:26:26.015Z,99691.70
2017-10-16T00:28:57.126Z,99699.17
2017-10-16T00:31:27.952Z,99698.42
2017-10-16T00:34:00.807Z,99694.55
2017-10-16T00:36:32.062Z,99698.69
2017-10-16T00:39:03.215Z,99701.53
2017-10-16T00:41:35.189Z,99696.59
2017-10-16T00:44:06.064Z,99698.83
2017-10-16T00:46:38.250Z,99694.83
2017-10-16T00:49:17.009Z,99701.52
2017-10-16T00:51:48.920Z,99696.06
2017-10-16T00:54:24.365Z,99700.00
2017-10-16T00:56:56.053Z,99696.48
2017-10-16T00:59:29.667Z,99703.64
2017-10-16T01:02:00.716Z,99692.48
2017-10-16T01:04:32.314Z,99690.92
2017-10-16T01:07:03.691Z,99691.34
2017-10-16T01:09:35.783Z,99687.82
2017-10-16T01:12:12.166Z,99683.81
2017-10-16T01:14:48.500Z,99688.93
2017-10-16T01:17:20.400Z,99683.89
2017-10-16T01:19:51.570Z,99681.51
2017-10-16T01:22:22.859Z,99682.13
2017-10-16T01:24:54.453Z,99672.66
2017-10-16T01:27:25.944Z,99673.86
2017-10-16T01:29:57.308Z,99671.52
2017-10-16T01:32:28.927Z,99672.95
2017-10-16T01:34:59.745Z,99669.63
2017-10-16T01:37:30.718Z,99668.72
2017-10-16T01:40:01.873Z,99658.53
2017-10-16T01:42:33.218Z,99663.13
2017-10-16T01:45:04.746Z,99661.08
2017-10-16T01:47:35.854Z,99667.19
2017-10-16T01:50:07.052Z,99670.52
2017-10-16T01:52:38.395Z,99670.12
2017-10-16T01:55:11.742Z,99673.37
2017-10-16T01:58:03.966Z,99670.67
2017-10-16T02:00:43.457Z,99676.86
2017-10-16T02:03:17.038Z,99673.08
2017-10-16T02:05:48.722Z,99671.75
2017-10-16T02:08:20.033Z,99672.14
2017-10-16T02:10:55.153Z,99670.18
2017-10-16T02:13:26.306Z,99666.30
2017-10-16T02:15:57.702Z,99671.84
2017-10-16T02:18:28.517Z,99672.33
2017-10-16T02:20:59.969Z,99676.48
2017-10-16T02:23:31.482Z,99672.67
2017-10-16T02:26:02.633Z,99670.98
2017-10-16T02:28:33.632Z,99671.52
2017-10-16T02:31:04.982Z,99673.23
2017-10-16T02:33:36.268Z,99671.64
2017-10-16T02:36:07.182Z,99666.11
2017-10-16T02:38:38.037Z,99661.20
2017-10-16T02:41:12.811Z,99664.10
2017-10-16T02:43:44.393Z,99655.70
2017-10-16T02:46:17.050Z,99661.62
2017-10-16T02:48:48.055Z,99672.33
2017-10-16T02:51:19.294Z,99668.91
2017-10-16T02:53:50.384Z,99668.67
2017-10-16T02:56:21.552Z,99667.59
2017-10-16T02:58:52.447Z,99670.56
2017-10-16T03:01:23.333Z,99669.95
2017-10-16T03:03:54.103Z,99677.10
2017-10-16T03:06:25.726Z,99680.69
2017-10-16T03:08:56.885Z,99679.22
2017-10-16T03:11:27.938Z,99672.53
2017-10-16T03:13:59.699Z,99677.77
2017-10-16T03:16:30.362Z,99674.13
2017-10-16T03:19:02.452Z,99678.91
2017-10-16T03:21:33.818Z,99685.19
2017-10-16T03:24:05.809Z,99690.01
2017-10-16T03:26:37.099Z,99689.09
2017-10-16T03:29:08.405Z,99690.67
2017-10-16T03:31:39.439Z,99692.94
2017-10-16T03:34:14.776Z,99683.47
2017-10-16T03:36:46.173Z,99689.09
2017-10-16T03:39:17.370Z,99689.84
2017-10-16T03:41:48.584Z,99688.20
2017-10-16T03:44:19.467Z,99687.11
2017-10-16T03:46:51.053Z,99680.30
2017-10-16T03:49:22.289Z,99679.65
2017-10-16T03:51:53.452Z,99672.55
2017-10-16T03:54:24.347Z,99681.59
2017-10-16T03:56:55.505Z,99677.30
2017-10-16T03:59:26.361Z,99679.34
2017-10-16T04:01:57.420Z,99676.82
2017-10-16T04:04:29.783Z,99680.11
2017-10-16T04:07:00.778Z,99679.18
2017-10-16T04:09:32.725Z,99680.74
2017-10-16T04:12:03.879Z,99682.67
2017-10-16T04:14:34.995Z,99681.64
2017-10-16T04:17:06.562Z,99682.59
2017-10-16T04:19:37.524Z,99685.83
2017-10-16T04:22:11.088Z,99676.74
2017-10-16T04:24:42.813Z,99676.55
2017-10-16T04:27:17.858Z,99670.34
2017-10-16T04:29:52.405Z,99668.77
2017-10-16T04:35:00.302Z,99668.70
2017-10-16T04:37:32.667Z,99664.43
2017-10-16T04:40:04.242Z,99659.59
2017-10-16T04:45:25.738Z,99665.66
2017-10-16T04:47:57.877Z,99653.42
2017-10-16T04:50:28.747Z,99647.52
2017-10-16T04:53:01.233Z,99646.06
2017-10-16T04:55:32.842Z,99643.31
2017-10-16T04:58:03.589Z,99641.74
2017-10-16T05:00:34.164Z,99645.75
2017-10-16T05:03:05.296Z,99644.84
2017-10-16T05:05:38.019Z,99638.23
2017-10-16T05:08:14.304Z,99635.59
2017-10-16T05:10:45.621Z,99641.71
2017-10-16T05:13:17.232Z,99632.99
2017-10-16T05:15:48.900Z,99633.62
2017-10-16T05:18:20.116Z,99632.91
2017-10-16T05:20:50.792Z,99631.62
2017-10-16T05:23:23.009Z,99632.62
2017-10-16T05:25:54.050Z,99634.12
2017-10-16T05:28:24.568Z,99630.67
2017-10-16T05:30:55.041Z,99649.59
2017-10-16T05:33:25.621Z,99658.02
2017-10-16T05:36:05.747Z,99655.57
2017-10-16T05:38:36.633Z,99654.77
2017-10-16T05:41:07.949Z,99661.67
2017-10-16T05:43:38.575Z,99671.22
2017-10-16T05:46:13.330Z,99668.70
2017-10-16T05:48:45.112Z,99690.09
2017-10-16T05:51:23.533Z,99704.22
2017-10-16T05:53:58.135Z,99708.19
2017-10-16T05:56:29.900Z,99707.92
2017-10-16T05:59:00.827Z,99701.33
2017-10-16T06:01:33.758Z,99699.33
2017-10-16T06:04:04.430Z,99692.33
2017-10-16T06:06:39.866Z,99698.08
2017-10-16T06:09:10.844Z,99713.03
2017-10-16T06:11:44.091Z,99717.36
2017-10-16T06:14:14.772Z,99723.48
2017-10-16T06:16:48.576Z,99738.62
2017-10-16T06:19:21.264Z,99739.97
2017-10-16T06:21:58.962Z,99742.20
2017-10-16T06:24:42.891Z,99740.37
2017-10-16T06:27:18.946Z,99740.70
2017-10-16T06:29:50.149Z,99737.64
2017-10-16T06:32:21.315Z,99740.79
2017-10-16T06:34:52.183Z,99731.70
2017-10-16T06:37:23.289Z,99730.97
2017-10-16T06:39:54.842Z,99727.36
2017-10-16T06:42:26.605Z,99735.68
2017-10-16T06:44:57.658Z,99742.28
2017-10-16T06:47:28.265Z,99747.95
2017-10-16T06:50:00.581Z,99748.70
2017-10-16T06:52:33.793Z,99745.01
2017-10-16T06:55:04.587Z,99745.22
2017-10-16T06:57:35.241Z,99758.95
2017-10-16T07:00:06.189Z,99756.33
2017-10-16T07:02:36.659Z,99751.05
2017-10-16T07:05:09.863Z,99747.63
2017-10-16T07:07:42.087Z,99747.75
2017-10-16T07:10:16.110Z,99750.21
2017-10-16T07:12:47.326Z,99743.26
2017-10-16T07:15:18.790Z,99747.53
2017-10-16T07:17:50.597Z,99749.95
2017-10-16T07:20:24.900Z,99752.63
2017-10-16T07:22:58.011Z,99758.77
2017-10-16T07:25:31.108Z,99748.52
2017-10-16T07:28:06.799Z,99749.98
2017-10-16T07:30:39.510Z,99754.37
2017-10-16T07:33:19.507Z,99752.64
2017-10-16T07:35:52.435Z,99758.41
2017-10-16T07:38:24.261Z,99757.55
2017-10-16T07:40:57.953Z,99753.14
2017-10-16T07:43:30.119Z,99760.69
2017-10-16T07:46:04.199Z,99752.38
2017-10-16T07:48:35.942Z,99750.69
2017-10-16T07:51:17.533Z,99757.66
2017-10-16T07:53:48.319Z,99765.83
2017-10-16T07:56:20.260Z,99764.89
2017-10-16T07:58:51.721Z,99765.92
2017-10-16T08:01:22.424Z,99765.86
2017-10-16T08:03:54.495Z,99774.55
2017-10-16T08:06:26.078Z,99768.77
2017-10-16T08:08:57.803Z,99756.42
2017-10-16T08:11:29.135Z,99753.10
2017-10-16T08:14:01.881Z,99745.80
2017-10-16T08:16:34.650Z,99743.70
2017-10-16T08:19:09.401Z,99747.05
2017-10-16T08:21:44.556Z,99742.77
2017-10-16T08:24:20.401Z,99738.30
2017-10-16T08:26:57.400Z,99739.93
2017-10-16T08:29:28.775Z,99736.94
2017-10-16T08:32:11.450Z,99735.28
2017-10-16T08:34:44.283Z,99735.15
2017-10-16T08:40:04.382Z,99747.37
2017-10-16T08:42:35.998Z,99746.37
2017-10-16T08:45:15.119Z,99747.42
2017-10-16T08:47:48.224Z,99746.73
2017-10-16T08:50:21.493Z,99743.05
2017-10-16T08:52:55.446Z,99755.58
2017-10-16T08:55:26.791Z,99757.98
2017-10-16T08:57:58.124Z,99756.19
2017-10-16T09:00:32.622Z,99760.73
2017-10-16T09:03:03.981Z,99760.91
2017-10-16T09:05:37.458Z,99760.16
2017-10-16T09:08:14.570Z,99758.38
2017-10-16T09:10:45.660Z,99758.64
2017-10-16T09:13:17.868Z,99751.67
2017-10-16T09:15:49.470Z,99759.39
2017-10-16T09:18:20.232Z,99765.37
2017-10-16T09:20:52.083Z,99761.60
2017-10-16T09:23:23.030Z,99761.52
2017-10-16T09:25:56.947Z,99753.99
2017-10-16T09:28:30.627Z,99753.33
2017-10-16T09:31:01.515Z,99746.16
2017-10-16T09:33:33.089Z,99742.97
2017-10-16T09:36:06.585Z,99742.56
2017-10-16T09:38:39.334Z,99748.29
2017-10-16T09:41:14.581Z,99744.19
2017-10-16T09:43:53.022Z,99738.84
2017-10-16T09:46:32.622Z,99742.42
2017-10-16T09:49:06.374Z,99748.73
2017-10-16T09:51:41.068Z,99750.05
2017-10-16T09:54:12.929Z,99743.71
2017-10-16T09:56:48.168Z,99750.36
2017-10-16T09:59:25.654Z,99753.45
2017-10-16T10:02:01.728Z,99758.23
2017-10-16T10:04:37.308Z,99761.05
2017-10-16T10:07:12.105Z,99762.35
2017-10-16T10:09:44.858Z,99765.34
2017-10-16T10:12:22.675Z,99769.08
2017-10-16T10:15:00.540Z,99772.02
2017-10-16T10:17:31.807Z,99774.39
2017-10-16T10:20:15.178Z,99770.65
2017-10-16T10:22:51.494Z,99767.24
2017-10-16T10:25:22.955Z,99771.58
2017-10-16T10:27:57.651Z,99767.43
2017-10-16T10:30:34.806Z,99773.69
2017-10-16T10:33:05.932Z,99760.88
2017-10-16T10:35:36.394Z,99758.22
2017-10-16T10:38:10.285Z,99757.28
2017-10-16T10:40:50.249Z,99749.09
2017-10-16T10:43:26.675Z,99756.98
2017-10-16T10:45:57.728Z,99759.59
2017-10-16T10:48:33.091Z,99755.27
2017-10-16T10:51:03.824Z,99752.36
2017-10-16T10:53:40.086Z,99757.36
2017-10-16T10:56:11.718Z,99769.86
2017-10-16T10:58:43.175Z,99769.95
2017-10-16T11:01:17.316Z,99771.83
2017-10-16T11:03:58.862Z,99765.83
2017-10-16T11:06:36.922Z,99772.40
2017-10-16T11:09:10.604Z,99770.61
2017-10-16T11:11:42.274Z,99767.50
2017-10-16T11:14:13.874Z,99775.00
2017-10-16T11:16:45.256Z,99767.05
2017-10-16T11:19:18.012Z,99768.77
2017-10-16T11:21:49.661Z,99768.80
2017-10-16T11:24:20.993Z,99761.09
2017-10-16T11:26:52.824Z,99751.00
2017-10-16T11:29:24.972Z,99753.80
2017-10-16T11:31:57.012Z,99759.25
2017-10-16T11:34:28.030Z,99758.77
2017-10-16T11:37:00.753Z,99755.86
2017-10-16T11:39:31.949Z,99760.59
2017-10-16T11:42:06.002Z,99763.70
2017-10-16T11:44:37.680Z,99752.56
2017-10-16T11:47:09.433Z,99748.53
2017-10-16T11:49:41.086Z,99751.92
2017-10-16T11:52:12.529Z,99749.02
2017-10-16T11:54:44.417Z,99756.55
2017-10-16T11:57:15.393Z,99753.91
2017-10-16T11:59:46.674Z,99753.41
2017-10-16T12:02:17.582Z,99749.13
2017-10-16T12:04:48.999Z,99741.13
2017-10-16T12:12:52.404Z,99734.93
2017-10-16T12:15:24.410Z,99733.58
2017-10-16T12:18:02.104Z,99734.52
2017-10-16T12:20:33.610Z,99728.03
2017-10-16T12:23:06.230Z,99726.97
2017-10-16T12:25:37.984Z,99727.27
2017-10-16T12:28:09.013Z,99724.13
2017-10-16T12:30:40.664Z,99727.43
2017-10-16T12:33:12.850Z,99721.12
2017-10-16T12:35:44.114Z,99722.12
2017-10-16T12:38:16.552Z,99716.78
2017-10-16T12:40:47.315Z,99720.35
2017-10-16T12:43:18.869Z,99720.70
2017-10-16T12:45:50.144Z,99716.11
2017-10-16T12:48:22.450Z,99721.50
2017-10-16T12:50:53.089Z,99721.92
2017-10-16T12:53:26.336Z,99726.92
2017-10-16T12:55:57.746Z,99728.14
2017-10-16T12:58:29.044Z,99725.87
2017-10-16T13:01:00.692Z,99721.83
2017-10-16T13:03:33.439Z,99714.17
2017-10-16T13:06:04.494Z,99710.83
2017-10-16T13:08:35.294Z,99716.16
2017-10-16T13:11:08.006Z,99711.86
2017-10-16T13:13:40.828Z,99709.95
2017-10-16T13:16:12.052Z,99712.72
2017-10-16T13:18:43.277Z,99714.73
2017-10-16T13:21:15.530Z,99715.84
2017-10-16T13:23:46.300Z,99722.59
2017-10-16T13:26:17.171Z,99717.16
2017-10-16T13:28:48.597Z,99713.64
2017-10-16T13:31:19.790Z,99716.27
2017-10-16T13:33:51.794Z,99717.23
2017-10-16T13:36:30.058Z,99712.63
2017-10-16T13:39:25.064Z,99707.07
2017-10-16T13:42:09.602Z,99707.68
2017-10-16T13:45:03.331Z,99706.85
2017-10-16T13:47:39.348Z,99712.95
2017-10-16T13:50:13.844Z,99710.06
2017-10-16T13:55:25.716Z,99711.25
2017-10-16T13:58:03.167Z,99711.92
2017-10-16T14:00:34.710Z,99708.22
2017-10-16T14:03:05.343Z,99706.45
2017-10-16T14:05:36.736Z,99711.95
2017-10-16T14:08:09.323Z,99713.93
2017-10-16T14:10:41.700Z,99710.55
2017-10-16T14:13:13.021Z,99701.20
2017-10-16T14:15:45.043Z,99700.69
2017-10-16T14:18:15.902Z,99706.38
2017-10-16T14:20:46.653Z,99702.43
2017-10-16T14:23:22.588Z,99709.73
2017-10-16T14:25:57.301Z,99704.68
2017-10-16T14:30:47.583Z,99699.86
2017-10-16T14:37:24.728Z,99703.27
2017-10-16T14:49:15.628Z,99708.33
2017-10-16T14:51:53.626Z,99711.05
2017-10-16T14:54:27.473Z,99712.11
2017-10-16T14:57:05.994Z,99708.02
2017-10-16T14:59:40.270Z,99703.15
2017-10-16T15:02:12.091Z,99709.35
2017-10-16T15:04:43.434Z,99713.97
2017-10-16T15:07:16.155Z,99713.03
2017-10-16T15:09:52.608Z,99702.67
2017-10-16T15:12:26.938Z,99708.83
2017-10-16T15:15:10.941Z,99712.50
2017-10-16T15:17:45.923Z,99710.47
2017-10-16T15:20:22.178Z,99714.00
2017-10-16T15:22:54.567Z,99710.63
2017-10-16T15:25:29.767Z,99709.84
2017-10-16T15:28:04.787Z,99713.83
2017-10-16T15:30:42.265Z,99718.03
2017-10-16T15:33:18.005Z,99718.52
2017-10-16T15:35:51.685Z,99715.84
2017-10-16T15:38:25.387Z,99718.72
2017-10-16T15:40:58.166Z,99714.66
2017-10-16T15:43:42.439Z,99714.98
2017-10-16T15:46:18.137Z,99711.58
2017-10-16T15:48:52.927Z,99714.23
2017-10-16T15:51:26.739Z,99714.72
2017-10-16T15:54:07.237Z,99707.30
2017-10-16T15:56:44.681Z,99706.10
2017-10-16T15:59:21.021Z,99709.43
2017-10-16T16:01:53.669Z,99712.52
2017-10-16T16:04:27.314Z,99711.20
2017-10-16T16:07:00.894Z,99714.14
2017-10-16T16:09:35.624Z,99710.45
2017-10-16T16:12:10.219Z,99717.30
2017-10-16T16:14:43.552Z,99712.34
2017-10-16T16:17:19.040Z,99714.62
2017-10-16T16:19:52.485Z,99708.68
2017-10-16T16:22:25.260Z,99714.52
2017-10-16T16:24:58.905Z,99710.26
2017-10-16T16:27:29.761Z,99715.36
2017-10-16T16:30:01.053Z,99720.91
2017-10-16T16:32:37.737Z,99722.94
2017-10-16T16:35:10.238Z,99722.36
2017-10-16T16:37:42.737Z,99723.28
2017-10-16T16:44:38.591Z,99722.61
2017-10-16T16:50:36.788Z,99725.61
2017-10-16T16:53:41.185Z,99723.38
2017-10-16T16:56:12.372Z,99733.30
2017-10-16T16:58:43.565Z,99740.06
2017-10-16T17:01:14.730Z,99742.11
2017-10-16T17:03:45.352Z,99734.67
2017-10-16T17:06:16.487Z,99725.97
2017-10-16T17:08:48.129Z,99730.25
2017-10-16T17:11:20.180Z,99722.14
2017-10-16T17:13:51.955Z,99722.00
2017-10-16T17:16:24.154Z,99722.34
2017-10-16T17:18:56.344Z,99717.67
2017-10-16T17:21:29.654Z,99722.87
2017-10-16T17:24:00.936Z,99718.74
2017-10-16T17:26:58.493Z,99721.95
2017-10-16T17:30:17.875Z,99719.58
2017-10-16T17:33:36.486Z,99726.02
2017-10-16T17:36:18.145Z,99726.44
2017-10-16T17:38:49.553Z,99718.82
2017-10-16T17:41:20.656Z,99721.17
2017-10-16T17:43:51.838Z,99723.62
2017-10-16T17:46:25.693Z,99725.89
2017-10-16T17:48:57.997Z,99725.63
2017-10-16T17:51:41.547Z,99723.73
2017-10-16T17:54:15.209Z,99727.46
2017-10-16T17:56:47.705Z,99724.78
2017-10-16T17:59:22.073Z,99722.22
2017-10-16T18:01:54.396Z,99725.14
2017-10-16T18:04:26.469Z,99718.84
2017-10-16T18:06:57.672Z,99717.83
2017-10-16T18:09:29.113Z,99718.41
2017-10-16T18:12:00.202Z,99719.02
2017-10-16T18:14:33.125Z,99712.16
2017-10-16T18:17:07.182Z,99713.08
2017-10-16T18:19:40.031Z,99708.00
2017-10-16T18:22:13.487Z,99706.86
2017-10-16T18:24:50.115Z,99702.81
2017-10-16T18:27:24.539Z,99694.83
2017-10-16T18:29:57.470Z,99690.55
2017-10-16T18:32:29.990Z,99699.76
2017-10-16T18:35:13.473Z,99697.37
2017-10-16T18:37:44.871Z,99694.71
2017-10-16T18:40:26.963Z,99694.27
2017-10-16T18:43:02.335Z,99692.12
2017-10-16T18:45:39.010Z,99689.85
2017-10-16T18:48:28.204Z,99692.18
2017-10-16T18:51:02.713Z,99687.42
2017-10-16T18:53:35.510Z,99684.20
2017-10-16T18:56:07.350Z,99683.20
2017-10-16T18:58:38.944Z,99684.58
2017-10-16T19:01:10.085Z,99681.20
2017-10-16T19:03:45.090Z,99680.55
2017-10-16T19:06:17.642Z,99688.73
2017-10-16T19:08:50.532Z,99688.31
2017-10-16T19:11:24.809Z,99687.75
2017-10-16T19:13:56.995Z,99693.77
2017-10-16T19:16:29.264Z,99695.67
2017-10-16T19:19:00.666Z,99699.25
2017-10-16T19:21:33.238Z,99705.91
2017-10-16T19:24:09.223Z,99703.02
2017-10-16T19:26:43.754Z,99702.84
2017-10-16T19:29:45.402Z,99702.71
2017-10-16T19:32:19.270Z,99701.39
2017-10-16T19:37:50.760Z,99695.34
2017-10-16T19:40:24.283Z,99695.50
2017-10-16T19:42:59.945Z,99698.41
2017-10-16T19:46:38.936Z,99695.86
2017-10-16T19:49:11.689Z,99698.98
2017-10-16T19:51:43.552Z,99699.13
2017-10-16T19:54:46.615Z,99705.28
2017-10-16T19:58:09.789Z,99701.09
2017-10-16T20:00:45.620Z,99705.39
2017-10-16T20:03:18.981Z,99702.38
2017-10-16T20:05:54.434Z,99703.92
2017-10-16T20:08:38.888Z,99698.70
2017-10-16T20:11:14.053Z,99709.16
2017-10-16T20:13:45.797Z,99708.37
2017-10-16T20:16:23.254Z,99705.55
2017-10-16T20:18:55.069Z,99710.08
2017-10-16T20:21:27.561Z,99706.33
2017-10-16T20:23:58.553Z,99705.78
2017-10-16T20:26:29.141Z,99697.36
2017-10-16T20:29:00.001Z,99699.70
2017-10-16T20:31:30.777Z,99707.99
2017-10-16T20:34:03.010Z,99708.14
2017-10-16T20:36:36.602Z,99710.41
2017-10-16T20:39:08.004Z,99710.13
2017-10-16T20:41:40.690Z,99713.63
2017-10-16T20:44:12.294Z,99709.30
2017-10-16T20:46:43.642Z,99715.55
2017-10-16T20:49:15.085Z,99712.66
2017-10-16T20:51:48.093Z,99715.57
2017-10-16T20:54:20.344Z,99709.73
2017-10-16T20:56:51.634Z,99714.53
2017-10-16T20:59:23.096Z,99719.58
2017-10-16T21:01:54.642Z,99718.67
2017-10-16T21:04:25.692Z,99713.52
2017-10-16T21:06:56.240Z,99719.72
2017-10-16T21:09:28.047Z,99720.14
2017-10-16T21:11:59.359Z,99722.67
2017-10-16T21:14:30.826Z,99724.36
2017-10-16T21:17:02.650Z,99718.00
2017-10-16T21:19:33.266Z,99720.45
2017-10-16T21:22:04.263Z,99720.83
2017-10-16T21:24:37.309Z,99722.17
2017-10-16T21:27:08.032Z,99719.60
2017-10-16T21:29:39.731Z,99709.59
2017-10-16T21:32:12.243Z,99714.12
2017-10-16T21:34:45.359Z,99715.67
2017-10-16T21:37:17.077Z,99714.97
2017-10-16T21:39:48.119Z,99715.15
2017-10-16T21:42:19.997Z,99716.59
2017-10-16T21:44:51.774Z,99709.72
2017-10-16T21:47:22.498Z,99708.03
2017-10-16T21:49:55.681Z,99711.34
2017-10-16T21:52:27.701Z,99706.83
2017-10-16T21:55:00.025Z,99703.73
2017-10-16T21:57:32.117Z,99694.38
2017-10-16T22:00:05.838Z,99695.38
2017-10-16T22:02:37.765Z,99693.38
2017-10-16T22:05:11.187Z,99693.77
2017-10-16T22:07:44.001Z,99687.42
2017-10-16T22:10:16.044Z,99688.94
2017-10-16T22:12:47.041Z,99688.58
2017-10-16T22:15:21.664Z,99690.88
2017-10-16T22:17:54.252Z,99685.24
2017-10-16T22:20:25.963Z,99689.64
2017-10-16T22:22:57.058Z,99688.44
2017-10-16T22:25:28.551Z,99681.75
2017-10-16T22:28:01.888Z,99678.32
2017-10-16T22:30:34.158Z,99680.25
2017-10-16T22:33:06.041Z,99686.42
2017-10-16T22:35:38.004Z,99675.48
2017-10-16T22:38:09.169Z,99673.55
2017-10-16T22:40:41.879Z,99670.61
2017-10-16T22:43:12.868Z,99666.70
2017-10-16T22:45:45.288Z,99666.37
2017-10-16T22:48:17.015Z,99670.71
2017-10-16T22:50:53.506Z,99666.20
2017-10-16T22:53:24.527Z,99668.17
2017-10-16T22:55:55.974Z,99663.59
2017-10-16T22:58:27.749Z,99664.45
2017-10-16T23:00:59.343Z,99659.02
2017-10-16T23:03:31.602Z,99658.08
2017-10-16T23:06:02.609Z,99661.28
2017-10-16T23:08:35.426Z,99653.66
2017-10-16T23:11:06.746Z,99656.37
2017-10-16T23:13:38.214Z,99657.92
2017-10-16T23:16:09.614Z,99657.47
2017-10-16T23:18:42.021Z,99649.55
2017-10-16T23:21:14.597Z,99651.05
2017-10-16T23:23:47.162Z,99648.31
2017-10-16T23:26:19.085Z,99645.73
2017-10-16T23:28:51.215Z,99652.50
2017-10-16T23:31:22.785Z,99650.30
2017-10-16T23:33:54.357Z,99646.31
2017-10-16T23:36:25.021Z,99645.44
2017-10-16T23:38:55.657Z,99649.53
2017-10-16T23:41:27.295Z,99649.87
2017-10-16T23:43:58.924Z,99646.28
2017-10-16T23:46:31.292Z,99644.23
2017-10-16T23:49:02.423Z,99641.77
2017-10-16T23:51:33.751Z,99639.34
2017-10-16T23:54:05.249Z,99638.55
2017-10-16T23:56:36.587Z,99642.22
2017-10-16T23:59:07.822Z,99646.64
